Zapolyarye — UBEF5 — position and weather

sailwx.info

Track history (hours):
 
Tides and Currents Weather Stations Pressure Air Temp Water Temp Dewpoint Dewpoint Depression Visibility Wind Speed Wind Dir Waves Ship Positions

Zapolyarye

Last reported at 2016-Aug-27 00:27 UTC. Time now 2016-Aug-27 02:58 UTC.
Position N 57°38' E 010°38'.

Length 181 m; draft 6.4 m.

Type: Cargo ship. MMSI: 273338310.

Date/timePositionNaut miles runAvg speedWind from/ knotsBaromVisibWave heightAir tempDewpointWater temp
2016-Aug-27 00:27N 57°38' E 010°38'0 0.0
2016-Aug-26 20:26N 57°38' E 010°38'0 0.0
2016-Aug-26 19:32N 57°38' E 010°38'0 0.0
2016-Aug-26 18:32N 57°38' E 010°38'0 0.0
2016-Aug-26 17:32N 57°38' E 010°38'0 0.0
2016-Aug-26 16:20N 57°38' E 010°38'0 0.0
2016-Aug-26 15:20N 57°38' E 010°38'0 0.0
2016-Aug-26 13:05N 57°38' E 010°38'0 0.1
2016-Aug-26 12:29N 57°38' E 010°38'0 0.1
2016-Aug-26 11:32N 57°38' E 010°38'0 0.0
2016-Aug-26 09:32N 57°38' E 010°38'0 0.0
2016-Aug-26 08:32N 57°38' E 010°38'0 0.0
2016-Aug-26 07:20N 57°38' E 010°38'0 0.0
2016-Aug-26 06:32N 57°38' E 010°38'0 0.0
2016-Aug-26 04:32N 57°38' E 010°38'0 0.0
2016-Aug-26 03:32N 57°38' E 010°38'0 0.0
2016-Aug-26 02:32N 57°38' E 010°38'0 0.1
2016-Aug-26 01:33N 57°38' E 010°38'8 8.4
2016-Aug-26 00:33N 57°46' E 010°43'1212.1
2016-Aug-25 23:33N 57°44' E 010°21'1111.5
2016-Aug-25 22:33N 57°40' E 010°01'1111.3
2016-Aug-25 21:33N 57°35' E 009°42'1111.1
2016-Aug-25 20:32N 57°29' E 009°24'11210.8
2016-Aug-25 10:14N 55°55' E 007°34'812.4
2016-Aug-25 09:33N 55°47' E 007°30'1312.6
2016-Aug-25 08:33N 55°35' E 007°24'1312.6
2016-Aug-25 07:33N 55°22' E 007°25'1312.6
2016-Aug-25 06:33N 55°10' E 007°27'2612.5
2016-Aug-25 04:31N 54°44' E 007°30'1212.2
2016-Aug-25 03:33N 54°33' E 007°32'1211.8
2016-Aug-25 02:33N 54°21' E 007°34'1111.1
2016-Aug-25 01:33N 54°10' E 007°38'1111.0
2016-Aug-25 00:33N 54°05' E 007°55'1110.6
2016-Aug-24 23:33N 54°00' E 008°11'1514.7
2016-Aug-24 22:33N 53°58' E 008°36'1515.5
2016-Aug-24 21:33N 53°51' E 008°60'1414.1
2016-Aug-24 20:33N 53°48' E 009°23'1514.6
2016-Aug-24 19:33N 53°36' E 009°36'1111.4
2016-Aug-24 18:33N 53°32' E 009°55'2 1.7
2016-Aug-24 17:31N 53°31' E 009°56'0 0.0
2016-Aug-24 16:31N 53°31' E 009°56'0 0.0
2016-Aug-24 15:31N 53°31' E 009°56'0 0.0
2016-Aug-24 14:31N 53°31' E 009°56'0 0.0
2016-Aug-24 13:31N 53°31' E 009°56'0 0.0
2016-Aug-24 12:31N 53°31' E 009°56'0 0.0
2016-Aug-24 11:31N 53°31' E 009°56'0 0.0
2016-Aug-24 10:31N 53°31' E 009°56'0 0.0
2016-Aug-24 09:31N 53°31' E 009°56'0 0.0
2016-Aug-24 08:31N 53°31' E 009°56'0 0.0
2016-Aug-24 07:31N 53°31' E 009°56'0 0.0
2016-Aug-24 06:31N 53°31' E 009°56'0 0.0
2016-Aug-24 04:31N 53°31' E 009°56'0 0.0
2016-Aug-24 03:25N 53°31' E 009°56'0 0.0
2016-Aug-24 02:31N 53°31' E 009°56'0 0.0
2016-Aug-24 01:34N 53°31' E 009°56'0 0.4
2016-Aug-24 00:33N 53°31' E 009°56'7 7.3
2016-Aug-23 23:33N 53°34' E 009°45'1010.0
2016-Aug-23 22:33N 53°39' E 009°31'1010.5
2016-Aug-23 21:33N 53°49' E 009°22'10 9.5
2016-Aug-23 20:33N 53°53' E 009°08'10 9.6
2016-Aug-23 19:33N 53°50' E 008°52'10 9.6
2016-Aug-23 18:33N 53°56' E 008°39'1110.8
2016-Aug-23 17:33N 53°59' E 008°21'10 9.6
2016-Aug-23 16:33N 54°00' E 008°05'3 3.2
2016-Aug-23 15:31N 54°03' E 008°08'0 0.1
2016-Aug-23 14:29N 54°03' E 008°08'0 0.0
2016-Aug-23 13:31N 54°03' E 008°08'0 0.0
2016-Aug-23 12:31N 54°03' E 008°08'0 0.0
2016-Aug-23 11:31N 54°03' E 008°08'0 0.0
2016-Aug-23 10:31N 54°03' E 008°08'5 5.2
2016-Aug-23 09:33N 54°03' E 007°60'1010.2
2016-Aug-23 08:33N 54°07' E 007°43'9 9.4
2016-Aug-23 07:33N 54°13' E 007°31'1010.3
2016-Aug-23 06:33N 54°23' E 007°30'712.8
2016-Aug-23 06:00N 54°30' E 007°30'3 6.5 320 / 141026.210.8 1.017.2 17.0
2016-Aug-23 05:33N 54°33' E 007°28'10 9.9
2016-Aug-23 04:33N 54°43' E 007°27'10 9.9
2016-Aug-23 03:33N 54°53' E 007°26'1010.1
2016-Aug-23 02:33N 55°03' E 007°25'1010.4
2016-Aug-23 01:33N 55°13' E 007°24'1110.7
2016-Aug-23 00:33N 55°24' E 007°23'1110.9
2016-Aug-22 23:33N 55°35' E 007°22'1110.3
2016-Aug-22 22:27N 55°46' E 007°25'102 9.3
2016-Aug-22 11:32N 57°16' E 008°47'10 9.7
2016-Aug-22 10:33N 57°22' E 009°02'43 9.4
2016-Aug-22 06:00N 57°42' E 010°12'17 9.1 160 / 121018.210.8 1.015.0 16.0
2016-Aug-22 04:10N 57°48' E 010°41'9 9.2
2016-Aug-22 03:12N 57°44' E 010°55'710.4
2016-Aug-22 02:33N 57°39' E 011°05'1111.2
2016-Aug-22 01:33N 57°31' E 011°19'1111.0
2016-Aug-22 00:33N 57°22' E 011°30'1111.2
2016-Aug-21 23:33N 57°11' E 011°37'1111.0
2016-Aug-21 22:33N 57°01' E 011°44'1010.5
2016-Aug-21 21:33N 56°51' E 011°50'10 9.6
2016-Aug-21 20:33N 56°41' E 011°49'8310.3
2016-Aug-21 12:31N 55°23' E 011°02'1111.2
2016-Aug-21 11:33N 55°13' E 011°06'1211.5
2016-Aug-21 10:33N 55°01' E 011°02'1211.6
2016-Aug-21 09:33N 54°51' E 010°53'1110.7
2016-Aug-21 08:33N 54°41' E 010°57'1111.3
2016-Aug-21 07:33N 54°35' E 011°14'1111.1
2016-Aug-21 06:33N 54°30' E 011°31'1110.8
2016-Aug-21 05:33N 54°26' E 011°48'1110.7
2016-Aug-21 04:33N 54°26' E 012°07'10 9.7
2016-Aug-21 03:33N 54°34' E 012°15'1010.4
2016-Aug-21 02:33N 54°41' E 012°29'2110.4
2016-Aug-21 00:33N 54°51' E 013°01'1110.6
2016-Aug-20 23:33N 54°54' E 013°18'1010.5
2016-Aug-20 22:33N 54°58' E 013°35'1111.0
2016-Aug-20 21:33N 55°02' E 013°53'1010.4
2016-Aug-20 20:33N 55°08' E 014°09'1110.7
2016-Aug-20 19:33N 55°16' E 014°21'1010.4
2016-Aug-20 18:33N 55°24' E 014°32'814.7
2016-Aug-20 18:00N 55°30' E 014°42'3 6.3 190 / 141014.8 5.4 1.018.0 16.0
2016-Aug-20 17:33N 55°30' E 014°47'1010.3
2016-Aug-20 16:33N 55°35' E 015°02'1010.0
2016-Aug-20 15:33N 55°40' E 015°18'  
Track history (hours):
 
Tides and Currents Weather Stations Pressure Air Temp Water Temp Dewpoint Dewpoint Depression Visibility Wind Speed Wind Dir Waves Ship Positions

Zapolyarye

Last reported at 2016-Aug-27 00:27 UTC. Time now 2016-Aug-27 02:58 UTC.
Position N 57°38' E 010°38'.

Length 181 m; draft 6.4 m.

Type: Cargo ship. MMSI: 273338310.

Date/timePositionNaut miles runAvg speedWind from/ knotsBaromVisibWave heightAir tempDewpointWater temp
2016-Aug-27 00:27N 57°38' E 010°38'0 0.0
2016-Aug-26 20:26N 57°38' E 010°38'0 0.0
2016-Aug-26 19:32N 57°38' E 010°38'0 0.0
2016-Aug-26 18:32N 57°38' E 010°38'0 0.0
2016-Aug-26 17:32N 57°38' E 010°38'0 0.0
2016-Aug-26 16:20N 57°38' E 010°38'0 0.0
2016-Aug-26 15:20N 57°38' E 010°38'0 0.0
2016-Aug-26 13:05N 57°38' E 010°38'0 0.1
2016-Aug-26 12:29N 57°38' E 010°38'0 0.1
2016-Aug-26 11:32N 57°38' E 010°38'0 0.0
2016-Aug-26 09:32N 57°38' E 010°38'0 0.0
2016-Aug-26 08:32N 57°38' E 010°38'0 0.0
2016-Aug-26 07:20N 57°38' E 010°38'0 0.0
2016-Aug-26 06:32N 57°38' E 010°38'0 0.0
2016-Aug-26 04:32N 57°38' E 010°38'0 0.0
2016-Aug-26 03:32N 57°38' E 010°38'0 0.0
2016-Aug-26 02:32N 57°38' E 010°38'0 0.1
2016-Aug-26 01:33N 57°38' E 010°38'8 8.4
2016-Aug-26 00:33N 57°46' E 010°43'1212.1
2016-Aug-25 23:33N 57°44' E 010°21'1111.5
2016-Aug-25 22:33N 57°40' E 010°01'1111.3
2016-Aug-25 21:33N 57°35' E 009°42'1111.1
2016-Aug-25 20:32N 57°29' E 009°24'11210.8
2016-Aug-25 10:14N 55°55' E 007°34'812.4
2016-Aug-25 09:33N 55°47' E 007°30'1312.6
2016-Aug-25 08:33N 55°35' E 007°24'1312.6
2016-Aug-25 07:33N 55°22' E 007°25'1312.6
2016-Aug-25 06:33N 55°10' E 007°27'2612.5
2016-Aug-25 04:31N 54°44' E 007°30'1212.2
2016-Aug-25 03:33N 54°33' E 007°32'1211.8
2016-Aug-25 02:33N 54°21' E 007°34'1111.1
2016-Aug-25 01:33N 54°10' E 007°38'1111.0
2016-Aug-25 00:33N 54°05' E 007°55'1110.6
2016-Aug-24 23:33N 54°00' E 008°11'1514.7
2016-Aug-24 22:33N 53°58' E 008°36'1515.5
2016-Aug-24 21:33N 53°51' E 008°60'1414.1
2016-Aug-24 20:33N 53°48' E 009°23'1514.6
2016-Aug-24 19:33N 53°36' E 009°36'1111.4
2016-Aug-24 18:33N 53°32' E 009°55'2 1.7
2016-Aug-24 17:31N 53°31' E 009°56'0 0.0
2016-Aug-24 16:31N 53°31' E 009°56'0 0.0
2016-Aug-24 15:31N 53°31' E 009°56'0 0.0
2016-Aug-24 14:31N 53°31' E 009°56'0 0.0
2016-Aug-24 13:31N 53°31' E 009°56'0 0.0
2016-Aug-24 12:31N 53°31' E 009°56'0 0.0
2016-Aug-24 11:31N 53°31' E 009°56'0 0.0
2016-Aug-24 10:31N 53°31' E 009°56'0 0.0
2016-Aug-24 09:31N 53°31' E 009°56'0 0.0
2016-Aug-24 08:31N 53°31' E 009°56'0 0.0
2016-Aug-24 07:31N 53°31' E 009°56'0 0.0
2016-Aug-24 06:31N 53°31' E 009°56'0 0.0
2016-Aug-24 04:31N 53°31' E 009°56'0 0.0
2016-Aug-24 03:25N 53°31' E 009°56'0 0.0
2016-Aug-24 02:31N 53°31' E 009°56'0 0.0
2016-Aug-24 01:34N 53°31' E 009°56'0 0.4
2016-Aug-24 00:33N 53°31' E 009°56'7 7.3
2016-Aug-23 23:33N 53°34' E 009°45'1010.0
2016-Aug-23 22:33N 53°39' E 009°31'1010.5
2016-Aug-23 21:33N 53°49' E 009°22'10 9.5
2016-Aug-23 20:33N 53°53' E 009°08'10 9.6
2016-Aug-23 19:33N 53°50' E 008°52'10 9.6
2016-Aug-23 18:33N 53°56' E 008°39'1110.8
2016-Aug-23 17:33N 53°59' E 008°21'10 9.6
2016-Aug-23 16:33N 54°00' E 008°05'3 3.2
2016-Aug-23 15:31N 54°03' E 008°08'0 0.1
2016-Aug-23 14:29N 54°03' E 008°08'0 0.0
2016-Aug-23 13:31N 54°03' E 008°08'0 0.0
2016-Aug-23 12:31N 54°03' E 008°08'0 0.0
2016-Aug-23 11:31N 54°03' E 008°08'0 0.0
2016-Aug-23 10:31N 54°03' E 008°08'5 5.2
2016-Aug-23 09:33N 54°03' E 007°60'1010.2
2016-Aug-23 08:33N 54°07' E 007°43'9 9.4
2016-Aug-23 07:33N 54°13' E 007°31'1010.3
2016-Aug-23 06:33N 54°23' E 007°30'712.8
2016-Aug-23 06:00N 54°30' E 007°30'3 6.5 320 / 141026.210.8 1.017.2 17.0
2016-Aug-23 05:33N 54°33' E 007°28'10 9.9
2016-Aug-23 04:33N 54°43' E 007°27'10 9.9
2016-Aug-23 03:33N 54°53' E 007°26'1010.1
2016-Aug-23 02:33N 55°03' E 007°25'1010.4
2016-Aug-23 01:33N 55°13' E 007°24'1110.7
2016-Aug-23 00:33N 55°24' E 007°23'1110.9
2016-Aug-22 23:33N 55°35' E 007°22'1110.3
2016-Aug-22 22:27N 55°46' E 007°25'102 9.3
2016-Aug-22 11:32N 57°16' E 008°47'10 9.7
2016-Aug-22 10:33N 57°22' E 009°02'43 9.4
2016-Aug-22 06:00N 57°42' E 010°12'17 9.1 160 / 121018.210.8 1.015.0 16.0
2016-Aug-22 04:10N 57°48' E 010°41'9 9.2
2016-Aug-22 03:12N 57°44' E 010°55'710.4
2016-Aug-22 02:33N 57°39' E 011°05'1111.2
2016-Aug-22 01:33N 57°31' E 011°19'1111.0
2016-Aug-22 00:33N 57°22' E 011°30'1111.2
2016-Aug-21 23:33N 57°11' E 011°37'1111.0
2016-Aug-21 22:33N 57°01' E 011°44'1010.5
2016-Aug-21 21:33N 56°51' E 011°50'10 9.6
2016-Aug-21 20:33N 56°41' E 011°49'8310.3
2016-Aug-21 12:31N 55°23' E 011°02'1111.2
2016-Aug-21 11:33N 55°13' E 011°06'1211.5
2016-Aug-21 10:33N 55°01' E 011°02'1211.6
2016-Aug-21 09:33N 54°51' E 010°53'1110.7
2016-Aug-21 08:33N 54°41' E 010°57'1111.3
2016-Aug-21 07:33N 54°35' E 011°14'1111.1
2016-Aug-21 06:33N 54°30' E 011°31'1110.8
2016-Aug-21 05:33N 54°26' E 011°48'1110.7
2016-Aug-21 04:33N 54°26' E 012°07'10 9.7
2016-Aug-21 03:33N 54°34' E 012°15'1010.4
2016-Aug-21 02:33N 54°41' E 012°29'2110.4
2016-Aug-21 00:33N 54°51' E 013°01'1110.6
2016-Aug-20 23:33N 54°54' E 013°18'1010.5
2016-Aug-20 22:33N 54°58' E 013°35'1111.0
2016-Aug-20 21:33N 55°02' E 013°53'1010.4
2016-Aug-20 20:33N 55°08' E 014°09'1110.7
2016-Aug-20 19:33N 55°16' E 014°21'1010.4
2016-Aug-20 18:33N 55°24' E 014°32'814.7
2016-Aug-20 18:00N 55°30' E 014°42'3 6.3 190 / 141014.8 5.4 1.018.0 16.0
2016-Aug-20 17:33N 55°30' E 014°47'1010.3
2016-Aug-20 16:33N 55°35' E 015°02'1010.0
2016-Aug-20 15:33N 55°40' E 015°18'  

Dump ship's entire track history